sensor_id;sensor_type;location;lat;lon;timestamp;P1;durP1;ratioP1;P2;durP2;ratioP2
66581;SDS011;53438;48.898;2.308;2023-03-23T00:01:11;1.58;;;0.90;;
66581;SDS011;53438;48.898;2.308;2023-03-23T00:03:38;2.90;;;1.20;;
66581;SDS011;53438;48.898;2.308;2023-03-23T00:06:05;4.57;;;0.90;;
66581;SDS011;53438;48.898;2.308;2023-03-23T00:08:35;2.80;;;0.75;;
66581;SDS011;53438;48.898;2.308;2023-03-23T00:11:11;2.40;;;0.80;;
66581;SDS011;53438;48.898;2.308;2023-03-23T00:13:47;1.63;;;0.90;;
66581;SDS011;53438;48.898;2.308;2023-03-23T00:16:16;2.20;;;0.90;;
66581;SDS011;53438;48.898;2.308;2023-03-23T00:18:46;3.45;;;1.15;;
66581;SDS011;53438;48.898;2.308;2023-03-23T00:21:14;3.58;;;0.80;;
66581;SDS011;53438;48.898;2.308;2023-03-23T00:23:40;3.70;;;1.20;;
66581;SDS011;53438;48.898;2.308;2023-03-23T00:26:05;4.43;;;1.10;;
66581;SDS011;53438;48.898;2.308;2023-03-23T00:28:32;4.22;;;0.82;;
66581;SDS011;53438;48.898;2.308;2023-03-23T00:30:58;4.25;;;1.02;;
66581;SDS011;53438;48.898;2.308;2023-03-23T00:33:26;2.90;;;0.73;;
66581;SDS011;53438;48.898;2.308;2023-03-23T00:35:53;2.63;;;0.90;;
66581;SDS011;53438;48.898;2.308;2023-03-23T00:38:21;2.97;;;0.75;;
66581;SDS011;53438;48.898;2.308;2023-03-23T00:40:47;2.85;;;0.93;;
66581;SDS011;53438;48.898;2.308;2023-03-23T00:43:14;3.40;;;1.05;;
66581;SDS011;53438;48.898;2.308;2023-03-23T00:45:41;2.70;;;1.10;;
66581;SDS011;53438;48.898;2.308;2023-03-23T00:48:07;1.80;;;0.90;;
66581;SDS011;53438;48.898;2.308;2023-03-23T00:50:32;2.50;;;0.90;;
66581;SDS011;53438;48.898;2.308;2023-03-23T00:52:58;3.30;;;1.10;;
66581;SDS011;53438;48.898;2.308;2023-03-23T00:55:24;2.65;;;1.17;;
66581;SDS011;53438;48.898;2.308;2023-03-23T00:57:50;2.88;;;0.90;;
66581;SDS011;53438;48.898;2.308;2023-03-23T04:01:57;3.72;;;1.20;;
66581;SDS011;53438;48.898;2.308;2023-03-23T04:04:23;5.13;;;0.90;;
66581;SDS011;53438;48.898;2.308;2023-03-23T04:06:48;4.30;;;1.10;;
66581;SDS011;53438;48.898;2.308;2023-03-23T04:09:14;2.10;;;0.83;;
66581;SDS011;53438;48.898;2.308;2023-03-23T04:11:39;2.22;;;1.00;;
66581;SDS011;53438;48.898;2.308;2023-03-23T04:14:05;2.60;;;0.93;;
66581;SDS011;53438;48.898;2.308;2023-03-23T04:16:31;5.65;;;1.30;;
66581;SDS011;53438;48.898;2.308;2023-03-23T04:18:59;4.77;;;0.93;;
66581;SDS011;53438;48.898;2.308;2023-03-23T04:21:25;2.45;;;1.20;;
66581;SDS011;53438;48.898;2.308;2023-03-23T04:23:53;2.22;;;0.85;;
66581;SDS011;53438;48.898;2.308;2023-03-23T04:26:25;3.20;;;0.90;;
66581;SDS011;53438;48.898;2.308;2023-03-23T04:28:53;2.20;;;1.13;;
66581;SDS011;53438;48.898;2.308;2023-03-23T04:31:20;2.42;;;1.20;;
66581;SDS011;53438;48.898;2.308;2023-03-23T04:33:45;3.13;;;1.00;;
66581;SDS011;53438;48.898;2.308;2023-03-23T04:36:11;2.97;;;1.00;;
66581;SDS011;53438;48.898;2.308;2023-03-23T04:38:40;1.83;;;0.93;;
66581;SDS011;53438;48.898;2.308;2023-03-23T04:41:07;4.00;;;1.15;;
66581;SDS011;53438;48.898;2.308;2023-03-23T04:43:33;2.20;;;1.20;;
66581;SDS011;53438;48.898;2.308;2023-03-23T04:46:06;2.00;;;1.20;;
66581;SDS011;53438;48.898;2.308;2023-03-23T04:48:33;2.28;;;1.10;;
66581;SDS011;53438;48.898;2.308;2023-03-23T04:51:00;2.93;;;0.90;;
66581;SDS011;53438;48.898;2.308;2023-03-23T04:53:27;2.03;;;0.63;;
66581;SDS011;53438;48.898;2.308;2023-03-23T04:55:53;2.92;;;0.88;;
66581;SDS011;53438;48.898;2.308;2023-03-23T04:58:18;3.07;;;1.00;;
66581;SDS011;53438;48.898;2.308;2023-03-23T05:00:44;3.00;;;0.90;;
66581;SDS011;53438;48.898;2.308;2023-03-23T05:03:14;2.45;;;0.60;;
66581;SDS011;53438;48.898;2.308;2023-03-23T05:05:43;2.42;;;0.85;;
66581;SDS011;53438;48.898;2.308;2023-03-23T05:08:12;2.95;;;1.10;;
66581;SDS011;53438;48.898;2.308;2023-03-23T05:10:38;2.33;;;1.23;;
66581;SDS011;53438;48.898;2.308;2023-03-23T05:13:03;2.45;;;1.10;;
66581;SDS011;53438;48.898;2.308;2023-03-23T05:15:29;3.10;;;1.23;;
66581;SDS011;53438;48.898;2.308;2023-03-23T05:17:55;4.03;;;1.10;;
66581;SDS011;53438;48.898;2.308;2023-03-23T05:20:20;2.28;;;0.85;;
66581;SDS011;53438;48.898;2.308;2023-03-23T05:22:47;4.00;;;1.13;;
66581;SDS011;53438;48.898;2.308;2023-03-23T05:25:14;2.50;;;0.75;;
66581;SDS011;53438;48.898;2.308;2023-03-23T05:27:40;2.67;;;0.73;;
66581;SDS011;53438;48.898;2.308;2023-03-23T05:30:14;1.90;;;0.90;;
66581;SDS011;53438;48.898;2.308;2023-03-23T05:32:41;2.92;;;0.88;;
66581;SDS011;53438;48.898;2.308;2023-03-23T05:35:08;3.85;;;1.02;;
66581;SDS011;53438;48.898;2.308;2023-03-23T05:37:33;1.63;;;0.80;;
66581;SDS011;53438;48.898;2.308;2023-03-23T05:39:59;2.00;;;0.80;;
66581;SDS011;53438;48.898;2.308;2023-03-23T05:42:30;5.30;;;0.70;;
66581;SDS011;53438;48.898;2.308;2023-03-23T05:44:55;3.83;;;0.80;;
66581;SDS011;53438;48.898;2.308;2023-03-23T05:47:21;3.27;;;1.00;;
66581;SDS011;53438;48.898;2.308;2023-03-23T05:49:46;1.80;;;0.80;;
66581;SDS011;53438;48.898;2.308;2023-03-23T05:52:12;1.67;;;0.70;;
66581;SDS011;53438;48.898;2.308;2023-03-23T05:54:38;2.45;;;0.60;;
66581;SDS011;53438;48.898;2.308;2023-03-23T05:57:03;1.93;;;0.70;;
66581;SDS011;53438;48.898;2.308;2023-03-23T05:59:30;3.80;;;1.10;;
66581;SDS011;53438;48.898;2.308;2023-03-23T06:01:55;2.97;;;1.03;;
66581;SDS011;53438;48.898;2.308;2023-03-23T06:04:22;4.18;;;0.80;;
66581;SDS011;53438;48.898;2.308;2023-03-23T06:06:50;4.22;;;0.73;;
66581;SDS011;53438;48.898;2.308;2023-03-23T06:09:19;3.20;;;1.10;;
66581;SDS011;53438;48.898;2.308;2023-03-23T06:11:45;3.33;;;1.30;;
66581;SDS011;53438;48.898;2.308;2023-03-23T06:14:12;1.98;;;1.00;;
66581;SDS011;53438;48.898;2.308;2023-03-23T06:16:39;1.92;;;0.70;;
66581;SDS011;53438;48.898;2.308;2023-03-23T06:19:05;3.57;;;1.10;;
66581;SDS011;53438;48.898;2.308;2023-03-23T06:21:31;2.30;;;0.90;;
66581;SDS011;53438;48.898;2.308;2023-03-23T06:23:57;4.50;;;0.90;;
66581;SDS011;53438;48.898;2.308;2023-03-23T06:26:25;2.22;;;1.13;;
66581;SDS011;53438;48.898;2.308;2023-03-23T06:28:53;2.40;;;0.95;;
66581;SDS011;53438;48.898;2.308;2023-03-23T06:31:19;1.90;;;0.85;;
66581;SDS011;53438;48.898;2.308;2023-03-23T06:33:45;3.73;;;0.87;;
66581;SDS011;53438;48.898;2.308;2023-03-23T06:36:12;3.25;;;0.95;;
66581;SDS011;53438;48.898;2.308;2023-03-23T06:38:37;4.00;;;1.20;;
66581;SDS011;53438;48.898;2.308;2023-03-23T06:41:03;2.47;;;0.90;;
66581;SDS011;53438;48.898;2.308;2023-03-23T06:43:29;3.00;;;0.80;;
66581;SDS011;53438;48.898;2.308;2023-03-23T06:45:58;2.80;;;0.90;;
66581;SDS011;53438;48.898;2.308;2023-03-23T06:48:24;4.07;;;1.30;;
66581;SDS011;53438;48.898;2.308;2023-03-23T06:50:49;3.73;;;1.17;;
66581;SDS011;53438;48.898;2.308;2023-03-23T06:53:16;4.73;;;0.97;;
66581;SDS011;53438;48.898;2.308;2023-03-23T06:55:42;4.80;;;1.23;;
66581;SDS011;53438;48.898;2.308;2023-03-23T06:58:08;2.92;;;1.30;;
66581;SDS011;53438;48.898;2.308;2023-03-23T07:00:34;3.00;;;1.47;;
66581;SDS011;53438;48.898;2.308;2023-03-23T07:02:59;2.33;;;1.13;;
66581;SDS011;53438;48.898;2.308;2023-03-23T07:05:26;2.15;;;1.00;;
66581;SDS011;53438;48.898;2.308;2023-03-23T07:07:52;6.38;;;1.80;;
66581;SDS011;53438;48.898;2.308;2023-03-23T07:10:17;3.33;;;1.10;;
66581;SDS011;53438;48.898;2.308;2023-03-23T07:12:43;1.80;;;1.40;;
66581;SDS011;53438;48.898;2.308;2023-03-23T07:15:08;4.33;;;1.43;;
66581;SDS011;53438;48.898;2.308;2023-03-23T07:17:36;5.93;;;1.80;;
66581;SDS011;53438;48.898;2.308;2023-03-23T07:20:02;4.63;;;1.27;;
66581;SDS011;53438;48.898;2.308;2023-03-23T07:22:29;5.05;;;1.58;;
66581;SDS011;53438;48.898;2.308;2023-03-23T07:24:55;4.70;;;1.60;;
66581;SDS011;53438;48.898;2.308;2023-03-23T07:27:21;5.67;;;1.53;;
66581;SDS011;53438;48.898;2.308;2023-03-23T07:29:46;4.93;;;1.60;;
66581;SDS011;53438;48.898;2.308;2023-03-23T07:32:12;3.38;;;1.33;;
66581;SDS011;53438;48.898;2.308;2023-03-23T07:34:39;6.23;;;1.43;;
66581;SDS011;53438;48.898;2.308;2023-03-23T07:37:04;4.28;;;1.52;;
66581;SDS011;53438;48.898;2.308;2023-03-23T07:39:30;5.75;;;1.45;;
66581;SDS011;53438;48.898;2.308;2023-03-23T07:41:56;3.00;;;1.20;;
66581;SDS011;53438;48.898;2.308;2023-03-23T07:44:22;3.58;;;1.50;;
66581;SDS011;53438;48.898;2.308;2023-03-23T07:46:47;7.85;;;1.77;;
66581;SDS011;53438;48.898;2.308;2023-03-23T07:49:13;5.33;;;1.70;;
66581;SDS011;53438;48.898;2.308;2023-03-23T07:51:39;4.47;;;1.67;;
66581;SDS011;53438;48.898;2.308;2023-03-23T07:54:05;2.95;;;1.40;;
66581;SDS011;53438;48.898;2.308;2023-03-23T07:56:32;5.70;;;2.00;;
66581;SDS011;53438;48.898;2.308;2023-03-23T07:58:58;5.63;;;1.30;;
66581;SDS011;53438;48.898;2.308;2023-03-23T08:01:24;3.90;;;1.30;;
66581;SDS011;53438;48.898;2.308;2023-03-23T08:03:49;6.93;;;1.60;;
66581;SDS011;53438;48.898;2.308;2023-03-23T08:06:16;7.07;;;1.40;;
66581;SDS011;53438;48.898;2.308;2023-03-23T08:08:43;6.93;;;1.50;;
66581;SDS011;53438;48.898;2.308;2023-03-23T08:11:09;6.18;;;1.75;;
66581;SDS011;53438;48.898;2.308;2023-03-23T08:13:34;4.20;;;1.63;;
66581;SDS011;53438;48.898;2.308;2023-03-23T08:16:00;5.95;;;1.33;;
66581;SDS011;53438;48.898;2.308;2023-03-23T08:18:28;2.88;;;1.23;;
66581;SDS011;53438;48.898;2.308;2023-03-23T08:20:56;7.90;;;1.98;;
66581;SDS011;53438;48.898;2.308;2023-03-23T08:23:22;10.43;;;1.90;;
66581;SDS011;53438;48.898;2.308;2023-03-23T08:25:48;6.68;;;1.95;;
66581;SDS011;53438;48.898;2.308;2023-03-23T08:28:13;4.07;;;1.60;;
66581;SDS011;53438;48.898;2.308;2023-03-23T08:30:39;6.30;;;1.88;;
66581;SDS011;53438;48.898;2.308;2023-03-23T08:33:05;7.70;;;1.50;;
66581;SDS011;53438;48.898;2.308;2023-03-23T08:35:32;4.35;;;1.00;;
66581;SDS011;53438;48.898;2.308;2023-03-23T08:37:57;3.28;;;1.30;;
66581;SDS011;53438;48.898;2.308;2023-03-23T08:40:23;7.93;;;1.70;;
66581;SDS011;53438;48.898;2.308;2023-03-23T08:42:50;5.22;;;1.23;;
66581;SDS011;53438;48.898;2.308;2023-03-23T08:45:18;4.38;;;1.33;;
66581;SDS011;53438;48.898;2.308;2023-03-23T08:47:45;6.90;;;1.60;;
66581;SDS011;53438;48.898;2.308;2023-03-23T08:50:15;8.00;;;1.58;;
66581;SDS011;53438;48.898;2.308;2023-03-23T08:52:41;7.63;;;1.60;;
66581;SDS011;53438;48.898;2.308;2023-03-23T08:55:08;5.15;;;1.55;;
66581;SDS011;53438;48.898;2.308;2023-03-23T08:57:34;5.93;;;1.60;;
66581;SDS011;53438;48.898;2.308;2023-03-23T09:00:01;5.07;;;1.52;;
66581;SDS011;53438;48.898;2.308;2023-03-23T09:02:48;9.48;;;1.90;;
66581;SDS011;53438;48.898;2.308;2023-03-23T09:05:16;6.38;;;1.42;;
66581;SDS011;53438;48.898;2.308;2023-03-23T09:07:45;6.03;;;1.48;;
66581;SDS011;53438;48.898;2.308;2023-03-23T09:10:12;6.00;;;1.37;;
66581;SDS011;53438;48.898;2.308;2023-03-23T09:12:39;6.45;;;1.60;;
66581;SDS011;53438;48.898;2.308;2023-03-23T09:15:05;5.70;;;1.58;;
66581;SDS011;53438;48.898;2.308;2023-03-23T09:17:41;9.25;;;2.00;;
66581;SDS011;53438;48.898;2.308;2023-03-23T09:20:08;10.07;;;1.80;;
66581;SDS011;53438;48.898;2.308;2023-03-23T09:22:42;8.18;;;1.45;;
66581;SDS011;53438;48.898;2.308;2023-03-23T09:25:10;4.57;;;1.67;;
66581;SDS011;53438;48.898;2.308;2023-03-23T09:27:41;7.95;;;1.95;;
66581;SDS011;53438;48.898;2.308;2023-03-23T09:30:09;7.57;;;2.08;;
66581;SDS011;53438;48.898;2.308;2023-03-23T09:32:36;6.83;;;1.80;;
66581;SDS011;53438;48.898;2.308;2023-03-23T09:35:03;4.80;;;1.40;;
66581;SDS011;53438;48.898;2.308;2023-03-23T09:37:33;27.83;;;4.47;;
66581;SDS011;53438;48.898;2.308;2023-03-23T09:40:01;22.23;;;4.07;;
66581;SDS011;53438;48.898;2.308;2023-03-23T09:50:25;41.08;;;5.93;;
66581;SDS011;53438;48.898;2.308;2023-03-23T09:52:56;24.13;;;5.43;;
66581;SDS011;53438;48.898;2.308;2023-03-23T09:55:25;12.60;;;2.80;;
66581;SDS011;53438;48.898;2.308;2023-03-23T10:05:42;7.85;;;1.52;;
66581;SDS011;53438;48.898;2.308;2023-03-23T10:08:11;8.73;;;1.85;;
66581;SDS011;53438;48.898;2.308;2023-03-23T10:13:24;6.45;;;1.63;;
66581;SDS011;53438;48.898;2.308;2023-03-23T10:16:14;5.18;;;1.55;;
66581;SDS011;53438;48.898;2.308;2023-03-23T10:18:46;8.38;;;1.65;;
66581;SDS011;53438;48.898;2.308;2023-03-23T10:21:19;12.95;;;1.85;;
66581;SDS011;53438;48.898;2.308;2023-03-23T10:23:49;5.63;;;1.33;;
66581;SDS011;53438;48.898;2.308;2023-03-23T10:29:17;7.45;;;1.70;;
66581;SDS011;53438;48.898;2.308;2023-03-23T10:31:56;7.07;;;1.73;;
66581;SDS011;53438;48.898;2.308;2023-03-23T10:40:00;12.90;;;2.53;;
66581;SDS011;53438;48.898;2.308;2023-03-23T10:42:29;10.15;;;2.10;;
66581;SDS011;53438;48.898;2.308;2023-03-23T10:44:57;15.15;;;2.47;;
66581;SDS011;53438;48.898;2.308;2023-03-23T10:47:25;9.38;;;2.28;;
66581;SDS011;53438;48.898;2.308;2023-03-23T10:49:55;8.47;;;1.97;;
66581;SDS011;53438;48.898;2.308;2023-03-23T10:52:33;12.25;;;1.88;;
66581;SDS011;53438;48.898;2.308;2023-03-23T10:57:32;4.93;;;1.65;;
66581;SDS011;53438;48.898;2.308;2023-03-23T10:59:59;11.65;;;1.55;;
66581;SDS011;53438;48.898;2.308;2023-03-23T11:02:31;5.77;;;1.27;;
66581;SDS011;53438;48.898;2.308;2023-03-23T11:05:03;6.43;;;1.40;;
66581;SDS011;53438;48.898;2.308;2023-03-23T11:07:38;5.60;;;1.00;;
66581;SDS011;53438;48.898;2.308;2023-03-23T11:10:05;11.13;;;2.20;;
66581;SDS011;53438;48.898;2.308;2023-03-23T11:12:43;7.38;;;1.83;;
66581;SDS011;53438;48.898;2.308;2023-03-23T11:15:15;10.60;;;2.05;;
66581;SDS011;53438;48.898;2.308;2023-03-23T11:18:00;9.48;;;1.52;;
66581;SDS011;53438;48.898;2.308;2023-03-23T11:20:28;8.37;;;2.80;;
66581;SDS011;53438;48.898;2.308;2023-03-23T11:22:58;9.50;;;2.55;;
66581;SDS011;53438;48.898;2.308;2023-03-23T11:25:24;9.57;;;1.67;;
66581;SDS011;53438;48.898;2.308;2023-03-23T11:27:51;8.90;;;1.75;;
66581;SDS011;53438;48.898;2.308;2023-03-23T11:30:21;8.10;;;1.43;;
66581;SDS011;53438;48.898;2.308;2023-03-23T11:32:49;11.93;;;2.15;;
66581;SDS011;53438;48.898;2.308;2023-03-23T11:35:19;7.07;;;1.85;;
66581;SDS011;53438;48.898;2.308;2023-03-23T11:37:51;9.87;;;2.00;;
66581;SDS011;53438;48.898;2.308;2023-03-23T11:40:23;10.77;;;1.70;;
66581;SDS011;53438;48.898;2.308;2023-03-23T11:53:50;10.73;;;1.80;;
66581;SDS011;53438;48.898;2.308;2023-03-23T11:58:52;14.57;;;2.25;;
66581;SDS011;53438;48.898;2.308;2023-03-23T12:06:52;11.90;;;2.83;;
66581;SDS011;53438;48.898;2.308;2023-03-23T12:12:52;11.65;;;2.20;;
66581;SDS011;53438;48.898;2.308;2023-03-23T12:20:31;11.77;;;2.20;;
66581;SDS011;53438;48.898;2.308;2023-03-23T12:25:42;10.63;;;2.35;;
66581;SDS011;53438;48.898;2.308;2023-03-23T12:28:43;13.55;;;2.75;;
66581;SDS011;53438;48.898;2.308;2023-03-23T12:42:53;9.43;;;2.05;;
66581;SDS011;53438;48.898;2.308;2023-03-23T12:47:59;9.10;;;2.73;;
66581;SDS011;53438;48.898;2.308;2023-03-23T12:51:13;9.88;;;2.10;;
66581;SDS011;53438;48.898;2.308;2023-03-23T12:53:42;10.23;;;1.92;;
66581;SDS011;53438;48.898;2.308;2023-03-23T12:56:22;10.85;;;2.10;;
66581;SDS011;53438;48.898;2.308;2023-03-23T13:01:33;9.30;;;2.27;;
66581;SDS011;53438;48.898;2.308;2023-03-23T13:06:41;13.18;;;2.17;;
66581;SDS011;53438;48.898;2.308;2023-03-23T13:12:07;11.90;;;1.90;;
66581;SDS011;53438;48.898;2.308;2023-03-23T13:28:30;19.83;;;4.20;;
66581;SDS011;53438;48.898;2.308;2023-03-23T13:33:25;13.48;;;2.95;;
66581;SDS011;53438;48.898;2.308;2023-03-23T13:35:55;20.25;;;3.97;;
66581;SDS011;53438;48.898;2.308;2023-03-23T13:38:25;25.05;;;3.67;;
66581;SDS011;53438;48.898;2.308;2023-03-23T13:40:53;19.07;;;3.27;;
66581;SDS011;53438;48.898;2.308;2023-03-23T13:45:53;24.30;;;3.92;;
66581;SDS011;53438;48.898;2.308;2023-03-23T13:48:22;15.30;;;2.60;;
66581;SDS011;53438;48.898;2.308;2023-03-23T13:50:57;7.03;;;2.08;;
66581;SDS011;53438;48.898;2.308;2023-03-23T13:56:21;10.23;;;1.90;;
66581;SDS011;53438;48.898;2.308;2023-03-23T13:59:12;14.23;;;2.22;;
66581;SDS011;53438;48.898;2.308;2023-03-23T14:01:39;19.42;;;3.38;;
66581;SDS011;53438;48.898;2.308;2023-03-23T14:04:10;23.65;;;2.92;;
66581;SDS011;53438;48.898;2.308;2023-03-23T14:06:39;12.53;;;2.57;;
66581;SDS011;53438;48.898;2.308;2023-03-23T14:09:07;9.85;;;2.47;;
66581;SDS011;53438;48.898;2.308;2023-03-23T14:11:55;11.65;;;2.33;;
66581;SDS011;53438;48.898;2.308;2023-03-23T14:14:25;17.80;;;2.95;;
66581;SDS011;53438;48.898;2.308;2023-03-23T14:17:04;19.48;;;3.22;;
66581;SDS011;53438;48.898;2.308;2023-03-23T14:19:53;15.77;;;3.57;;
66581;SDS011;53438;48.898;2.308;2023-03-23T14:22:24;11.70;;;2.55;;
66581;SDS011;53438;48.898;2.308;2023-03-23T14:24:49;12.82;;;1.83;;
66581;SDS011;53438;48.898;2.308;2023-03-23T14:27:20;6.70;;;1.90;;
66581;SDS011;53438;48.898;2.308;2023-03-23T14:30:00;7.60;;;1.90;;
66581;SDS011;53438;48.898;2.308;2023-03-23T14:32:28;10.43;;;1.80;;
66581;SDS011;53438;48.898;2.308;2023-03-23T14:34:57;7.13;;;2.05;;
66581;SDS011;53438;48.898;2.308;2023-03-23T14:37:24;11.50;;;1.77;;
66581;SDS011;53438;48.898;2.308;2023-03-23T14:39:54;7.18;;;1.95;;
66581;SDS011;53438;48.898;2.308;2023-03-23T14:42:27;8.07;;;1.73;;
66581;SDS011;53438;48.898;2.308;2023-03-23T14:44:55;9.00;;;1.83;;
66581;SDS011;53438;48.898;2.308;2023-03-23T14:47:26;9.10;;;1.65;;
66581;SDS011;53438;48.898;2.308;2023-03-23T14:49:56;7.38;;;1.75;;
66581;SDS011;53438;48.898;2.308;2023-03-23T14:52:24;5.22;;;1.77;;
66581;SDS011;53438;48.898;2.308;2023-03-23T14:54:52;6.78;;;1.65;;
66581;SDS011;53438;48.898;2.308;2023-03-23T14:57:18;10.13;;;1.67;;
66581;SDS011;53438;48.898;2.308;2023-03-23T14:59:51;7.70;;;1.33;;
66581;SDS011;53438;48.898;2.308;2023-03-23T15:02:23;8.95;;;1.50;;
66581;SDS011;53438;48.898;2.308;2023-03-23T15:05:17;7.97;;;1.75;;
66581;SDS011;53438;48.898;2.308;2023-03-23T15:07:47;4.93;;;1.60;;
66581;SDS011;53438;48.898;2.308;2023-03-23T15:10:19;8.02;;;1.52;;
66581;SDS011;53438;48.898;2.308;2023-03-23T15:12:47;8.32;;;1.77;;
66581;SDS011;53438;48.898;2.308;2023-03-23T15:15:18;6.60;;;1.80;;
66581;SDS011;53438;48.898;2.308;2023-03-23T15:17:47;6.65;;;1.42;;
66581;SDS011;53438;48.898;2.308;2023-03-23T15:22:47;7.60;;;2.10;;
66581;SDS011;53438;48.898;2.308;2023-03-23T15:25:18;6.43;;;1.65;;
66581;SDS011;53438;48.898;2.308;2023-03-23T15:27:56;5.97;;;1.45;;
66581;SDS011;53438;48.898;2.308;2023-03-23T15:32:49;4.47;;;1.50;;
66581;SDS011;53438;48.898;2.308;2023-03-23T15:35:19;7.03;;;1.52;;
66581;SDS011;53438;48.898;2.308;2023-03-23T15:40:27;6.72;;;1.58;;
66581;SDS011;53438;48.898;2.308;2023-03-23T15:43:06;5.15;;;1.40;;
66581;SDS011;53438;48.898;2.308;2023-03-23T15:48:32;7.13;;;1.52;;
66581;SDS011;53438;48.898;2.308;2023-03-23T15:51:10;6.43;;;1.70;;
66581;SDS011;53438;48.898;2.308;2023-03-23T15:53:37;6.57;;;1.80;;
66581;SDS011;53438;48.898;2.308;2023-03-23T15:56:04;6.45;;;1.30;;
66581;SDS011;53438;48.898;2.308;2023-03-23T15:58:32;7.85;;;2.03;;
66581;SDS011;53438;48.898;2.308;2023-03-23T16:00:58;7.00;;;1.73;;
66581;SDS011;53438;48.898;2.308;2023-03-23T16:06:17;4.55;;;1.40;;
66581;SDS011;53438;48.898;2.308;2023-03-23T16:08:44;6.95;;;1.33;;
66581;SDS011;53438;48.898;2.308;2023-03-23T16:11:11;7.03;;;1.60;;
66581;SDS011;53438;48.898;2.308;2023-03-23T16:13:37;6.60;;;1.92;;
66581;SDS011;53438;48.898;2.308;2023-03-23T16:16:03;7.03;;;1.60;;
66581;SDS011;53438;48.898;2.308;2023-03-23T16:18:32;11.43;;;1.77;;
66581;SDS011;53438;48.898;2.308;2023-03-23T16:20:58;5.70;;;2.10;;
66581;SDS011;53438;48.898;2.308;2023-03-23T16:23:23;7.57;;;1.88;;
66581;SDS011;53438;48.898;2.308;2023-03-23T16:25:48;7.57;;;1.88;;
66581;SDS011;53438;48.898;2.308;2023-03-23T16:28:14;6.30;;;1.37;;
66581;SDS011;53438;48.898;2.308;2023-03-23T16:30:41;5.70;;;1.63;;
66581;SDS011;53438;48.898;2.308;2023-03-23T16:33:07;3.13;;;1.30;;
66581;SDS011;53438;48.898;2.308;2023-03-23T16:35:34;5.10;;;1.47;;
66581;SDS011;53438;48.898;2.308;2023-03-23T16:38:00;8.98;;;1.40;;
66581;SDS011;53438;48.898;2.308;2023-03-23T16:40:25;6.05;;;1.52;;
66581;SDS011;53438;48.898;2.308;2023-03-23T16:42:51;5.53;;;1.53;;
66581;SDS011;53438;48.898;2.308;2023-03-23T16:45:17;8.45;;;1.95;;
66581;SDS011;53438;48.898;2.308;2023-03-23T16:47:45;4.88;;;1.30;;
66581;SDS011;53438;48.898;2.308;2023-03-23T16:50:12;4.67;;;1.30;;
66581;SDS011;53438;48.898;2.308;2023-03-23T16:52:39;4.55;;;1.30;;
66581;SDS011;53438;48.898;2.308;2023-03-23T16:55:06;9.93;;;2.00;;
66581;SDS011;53438;48.898;2.308;2023-03-23T16:57:33;3.13;;;1.33;;
66581;SDS011;53438;48.898;2.308;2023-03-23T17:00:02;8.13;;;1.50;;
66581;SDS011;53438;48.898;2.308;2023-03-23T17:02:29;5.70;;;1.63;;
66581;SDS011;53438;48.898;2.308;2023-03-23T17:04:55;7.33;;;1.67;;
66581;SDS011;53438;48.898;2.308;2023-03-23T17:07:22;13.75;;;1.55;;
66581;SDS011;53438;48.898;2.308;2023-03-23T17:09:47;7.18;;;1.40;;
66581;SDS011;53438;48.898;2.308;2023-03-23T17:12:14;7.73;;;1.63;;
66581;SDS011;53438;48.898;2.308;2023-03-23T17:14:40;5.28;;;1.50;;
66581;SDS011;53438;48.898;2.308;2023-03-23T17:17:05;4.97;;;1.57;;
66581;SDS011;53438;48.898;2.308;2023-03-23T17:19:31;4.28;;;1.20;;
66581;SDS011;53438;48.898;2.308;2023-03-23T17:21:56;6.03;;;1.60;;
66581;SDS011;53438;48.898;2.308;2023-03-23T17:24:22;4.50;;;1.70;;
66581;SDS011;53438;48.898;2.308;2023-03-23T17:26:47;6.43;;;1.47;;
66581;SDS011;53438;48.898;2.308;2023-03-23T17:29:12;7.43;;;1.60;;
66581;SDS011;53438;48.898;2.308;2023-03-23T17:31:38;5.05;;;1.33;;
66581;SDS011;53438;48.898;2.308;2023-03-23T17:34:05;5.32;;;1.52;;
66581;SDS011;53438;48.898;2.308;2023-03-23T17:36:31;5.70;;;1.87;;
66581;SDS011;53438;48.898;2.308;2023-03-23T17:38:56;6.77;;;2.13;;
66581;SDS011;53438;48.898;2.308;2023-03-23T17:41:21;5.10;;;1.73;;
66581;SDS011;53438;48.898;2.308;2023-03-23T17:43:47;4.93;;;1.47;;
66581;SDS011;53438;48.898;2.308;2023-03-23T17:46:14;9.03;;;1.73;;
66581;SDS011;53438;48.898;2.308;2023-03-23T17:48:39;10.40;;;2.75;;
66581;SDS011;53438;48.898;2.308;2023-03-23T17:51:06;4.82;;;1.65;;
66581;SDS011;53438;48.898;2.308;2023-03-23T17:53:32;8.10;;;1.75;;
66581;SDS011;53438;48.898;2.308;2023-03-23T17:55:59;5.50;;;1.93;;
66581;SDS011;53438;48.898;2.308;2023-03-23T17:58:26;4.30;;;1.45;;
66581;SDS011;53438;48.898;2.308;2023-03-23T18:00:52;6.38;;;1.85;;
66581;SDS011;53438;48.898;2.308;2023-03-23T18:03:18;4.93;;;1.35;;
66581;SDS011;53438;48.898;2.308;2023-03-23T18:05:44;5.75;;;1.67;;
66581;SDS011;53438;48.898;2.308;2023-03-23T18:08:10;7.55;;;1.63;;
66581;SDS011;53438;48.898;2.308;2023-03-23T18:10:36;5.70;;;1.80;;
66581;SDS011;53438;48.898;2.308;2023-03-23T18:13:03;6.35;;;1.63;;
66581;SDS011;53438;48.898;2.308;2023-03-23T18:15:31;6.40;;;2.05;;
66581;SDS011;53438;48.898;2.308;2023-03-23T18:17:57;8.68;;;1.65;;
66581;SDS011;53438;48.898;2.308;2023-03-23T18:20:24;11.25;;;2.10;;
66581;SDS011;53438;48.898;2.308;2023-03-23T18:22:50;6.57;;;1.60;;
66581;SDS011;53438;48.898;2.308;2023-03-23T18:25:16;7.28;;;2.05;;
66581;SDS011;53438;48.898;2.308;2023-03-23T18:27:41;5.10;;;1.67;;
66581;SDS011;53438;48.898;2.308;2023-03-23T18:30:07;6.10;;;1.60;;
66581;SDS011;53438;48.898;2.308;2023-03-23T18:32:34;6.57;;;2.15;;
66581;SDS011;53438;48.898;2.308;2023-03-23T18:35:01;7.97;;;3.17;;
66581;SDS011;53438;48.898;2.308;2023-03-23T18:37:29;10.40;;;1.95;;
66581;SDS011;53438;48.898;2.308;2023-03-23T18:40:06;6.17;;;1.83;;
66581;SDS011;53438;48.898;2.308;2023-03-23T18:42:39;6.78;;;1.98;;
66581;SDS011;53438;48.898;2.308;2023-03-23T18:45:06;6.30;;;1.85;;
66581;SDS011;53438;48.898;2.308;2023-03-23T18:47:32;6.55;;;1.88;;
66581;SDS011;53438;48.898;2.308;2023-03-23T18:49:58;8.80;;;2.40;;
66581;SDS011;53438;48.898;2.308;2023-03-23T18:52:23;5.83;;;1.57;;
66581;SDS011;53438;48.898;2.308;2023-03-23T18:54:55;7.53;;;2.30;;
66581;SDS011;53438;48.898;2.308;2023-03-23T18:57:21;6.47;;;2.63;;
66581;SDS011;53438;48.898;2.308;2023-03-23T18:59:47;8.25;;;1.52;;
66581;SDS011;53438;48.898;2.308;2023-03-23T19:02:13;8.40;;;2.10;;
66581;SDS011;53438;48.898;2.308;2023-03-23T19:04:42;7.03;;;2.30;;
66581;SDS011;53438;48.898;2.308;2023-03-23T19:07:08;6.53;;;1.70;;
66581;SDS011;53438;48.898;2.308;2023-03-23T19:09:33;6.47;;;1.50;;
66581;SDS011;53438;48.898;2.308;2023-03-23T19:11:59;8.10;;;1.55;;
66581;SDS011;53438;48.898;2.308;2023-03-23T19:14:25;7.33;;;1.87;;
66581;SDS011;53438;48.898;2.308;2023-03-23T19:16:51;3.92;;;1.58;;
66581;SDS011;53438;48.898;2.308;2023-03-23T19:19:17;6.80;;;2.08;;
66581;SDS011;53438;48.898;2.308;2023-03-23T19:21:42;5.73;;;2.20;;
66581;SDS011;53438;48.898;2.308;2023-03-23T19:24:08;8.43;;;3.13;;
66581;SDS011;53438;48.898;2.308;2023-03-23T19:26:43;7.72;;;1.80;;
66581;SDS011;53438;48.898;2.308;2023-03-23T19:29:10;4.50;;;1.73;;
66581;SDS011;53438;48.898;2.308;2023-03-23T19:31:37;7.67;;;1.40;;
66581;SDS011;53438;48.898;2.308;2023-03-23T19:34:03;8.65;;;1.90;;
66581;SDS011;53438;48.898;2.308;2023-03-23T19:36:30;6.20;;;1.83;;
66581;SDS011;53438;48.898;2.308;2023-03-23T19:38:56;4.70;;;2.08;;
66581;SDS011;53438;48.898;2.308;2023-03-23T19:41:22;7.80;;;1.45;;
66581;SDS011;53438;48.898;2.308;2023-03-23T19:43:51;5.43;;;2.28;;
66581;SDS011;53438;48.898;2.308;2023-03-23T19:46:17;6.73;;;2.50;;
66581;SDS011;53438;48.898;2.308;2023-03-23T19:48:42;9.87;;;3.43;;
66581;SDS011;53438;48.898;2.308;2023-03-23T19:51:08;6.87;;;3.40;;